createdAt,value
2023-02-22T00:01:35.965Z,70.63
2023-02-22T00:04:05.611Z,68.22
2023-02-22T00:06:33.231Z,65.82
2023-02-22T00:09:02.379Z,63.97
2023-02-22T00:11:31.654Z,58.10
2023-02-22T00:13:59.060Z,59.00
2023-02-22T00:16:26.895Z,57.25
2023-02-22T00:18:54.997Z,57.30
2023-02-22T00:21:22.665Z,54.85
2023-02-22T00:23:49.905Z,54.20
2023-02-22T00:26:23.538Z,52.20
2023-02-22T00:28:53.256Z,52.40
2023-02-22T00:31:21.383Z,50.08
2023-02-22T00:33:48.533Z,48.88
2023-02-22T00:36:16.117Z,48.75
2023-02-22T00:38:43.241Z,48.08
2023-02-22T00:41:10.388Z,45.65
2023-02-22T00:43:37.467Z,45.10
2023-02-22T00:46:04.907Z,45.83
2023-02-22T00:48:32.025Z,43.50
2023-02-22T00:50:59.180Z,42.80
2023-02-22T00:53:26.749Z,43.72
2023-02-22T00:55:54.468Z,39.78
2023-02-22T00:58:22.224Z,39.40
2023-02-22T01:00:49.596Z,39.60
2023-02-22T01:03:19.765Z,39.72
2023-02-22T01:05:47.260Z,40.15
2023-02-22T01:08:15.801Z,39.38
2023-02-22T01:10:43.396Z,38.55
2023-02-22T01:13:12.545Z,37.17
2023-02-22T01:15:42.771Z,38.15
2023-02-22T01:18:11.749Z,36.72
2023-02-22T01:20:39.609Z,34.65
2023-02-22T01:23:08.194Z,35.60
2023-02-22T01:25:36.070Z,34.28
2023-02-22T01:28:05.800Z,33.88
2023-02-22T01:33:03.438Z,34.15
2023-02-22T01:35:33.150Z,33.15
2023-02-22T01:38:00.535Z,31.83
2023-02-22T01:40:32.578Z,31.92
2023-02-22T01:43:15.604Z,32.08
2023-02-22T01:45:47.326Z,31.38
2023-02-22T01:48:17.557Z,30.50
2023-02-22T01:51:10.901Z,29.08
2023-02-22T01:53:46.361Z,29.75
2023-02-22T01:56:14.137Z,29.38
2023-02-22T01:58:43.855Z,29.27
2023-02-22T02:01:12.045Z,28.60
2023-02-22T02:03:40.623Z,28.30
2023-02-22T02:06:13.082Z,27.85
2023-02-22T02:09:20.256Z,27.65
2023-02-22T02:11:47.406Z,27.08
2023-02-22T02:14:15.256Z,26.58
2023-02-22T02:16:45.244Z,26.70
2023-02-22T02:19:47.328Z,25.83
2023-02-22T02:22:23.369Z,26.17
2023-02-22T02:24:53.167Z,26.85
2023-02-22T02:27:23.568Z,26.55
2023-02-22T02:30:29.149Z,24.45
2023-02-22T02:32:59.138Z,24.88
2023-02-22T02:35:39.531Z,24.50
2023-02-22T02:38:31.184Z,23.65
2023-02-22T02:41:36.874Z,23.90
2023-02-22T02:44:13.637Z,23.60
2023-02-22T02:46:49.584Z,23.00
2023-02-22T02:49:22.392Z,22.95
2023-02-22T02:51:52.654Z,20.95
2023-02-22T02:54:21.100Z,21.27
2023-02-22T02:56:48.518Z,23.52
2023-02-22T02:59:30.945Z,21.42
2023-02-22T03:02:17.474Z,21.60
2023-02-22T03:05:16.471Z,20.35
2023-02-22T03:07:49.438Z,21.08
2023-02-22T03:10:38.059Z,20.23
2023-02-22T03:13:16.863Z,20.65
2023-02-22T03:15:57.082Z,20.20
2023-02-22T03:18:50.707Z,20.45
2023-02-22T03:21:24.884Z,18.90
2023-02-22T03:24:01.606Z,18.63
2023-02-22T03:26:42.642Z,19.05
2023-02-22T03:29:12.711Z,18.27
2023-02-22T03:31:49.165Z,18.75
2023-02-22T03:34:20.492Z,18.95
2023-02-22T03:36:59.098Z,17.83
2023-02-22T03:39:31.187Z,18.10
2023-02-22T03:42:04.125Z,17.30
2023-02-22T03:44:32.475Z,17.83
2023-02-22T03:47:02.637Z,17.52
2023-02-22T03:49:46.034Z,17.00
2023-02-22T03:52:13.200Z,17.05
2023-02-22T03:54:40.680Z,15.98
2023-02-22T03:57:31.479Z,16.25
2023-02-22T03:59:58.716Z,16.25
2023-02-22T04:02:25.823Z,16.13
2023-02-22T04:04:52.919Z,16.20
2023-02-22T04:07:20.111Z,15.65
2023-02-22T04:09:47.184Z,14.80
2023-02-22T04:12:14.358Z,15.93
2023-02-22T04:14:41.446Z,15.65
2023-02-22T04:17:08.911Z,15.35
2023-02-22T04:19:36.255Z,15.10
2023-02-22T04:22:03.313Z,15.32
2023-02-22T04:24:30.724Z,14.30
2023-02-22T04:26:57.800Z,14.98
2023-02-22T04:29:24.908Z,15.32
2023-02-22T04:31:51.970Z,13.95
2023-02-22T04:34:19.114Z,14.35
2023-02-22T04:36:46.133Z,14.10
2023-02-22T04:39:13.345Z,13.35
2023-02-22T04:41:40.495Z,13.98
2023-02-22T04:44:07.706Z,13.13
2023-02-22T04:46:34.966Z,13.75
2023-02-22T04:49:02.200Z,12.98
2023-02-22T04:51:29.428Z,13.38
2023-02-22T04:53:56.498Z,12.45
2023-02-22T04:56:24.019Z,12.93
2023-02-22T04:58:51.092Z,12.43
2023-02-22T05:01:18.485Z,12.45
2023-02-22T05:03:45.688Z,12.25
2023-02-22T05:06:13.020Z,12.45
2023-02-22T05:08:40.075Z,11.85
2023-02-22T05:11:07.120Z,11.80
2023-02-22T05:13:34.204Z,11.15
2023-02-22T05:16:01.638Z,11.07
2023-02-22T05:18:29.741Z,11.07
2023-02-22T05:20:56.879Z,11.07
2023-02-22T05:23:23.926Z,10.85
2023-02-22T05:25:51.036Z,10.50
2023-02-22T05:28:18.077Z,10.38
2023-02-22T05:30:45.428Z,10.02
2023-02-22T05:33:13.166Z,9.43
2023-02-22T05:35:40.236Z,9.68
2023-02-22T05:38:07.807Z,9.98
2023-02-22T05:40:35.181Z,10.02
2023-02-22T05:43:02.958Z,9.65
2023-02-22T05:45:30.375Z,9.50
2023-02-22T05:47:58.148Z,9.52
2023-02-22T05:50:25.419Z,9.00
2023-02-22T05:52:53.349Z,9.13
2023-02-22T05:55:22.270Z,9.05
2023-02-22T05:57:49.604Z,9.57
2023-02-22T06:00:25.276Z,8.73
2023-02-22T06:02:56.857Z,9.25
2023-02-22T06:05:24.236Z,8.40
2023-02-22T06:07:51.404Z,8.68
2023-02-22T06:10:18.870Z,9.02
2023-02-22T06:12:46.501Z,8.30
2023-02-22T06:15:15.840Z,8.38
2023-02-22T06:17:43.195Z,8.43
2023-02-22T06:20:12.281Z,7.97
2023-02-22T06:22:41.322Z,8.20
2023-02-22T06:25:09.687Z,7.53
2023-02-22T06:27:37.420Z,8.10
2023-02-22T06:30:05.193Z,8.30
2023-02-22T06:32:32.543Z,7.38
2023-02-22T06:34:59.761Z,8.02
2023-02-22T06:37:26.863Z,7.90
2023-02-22T06:39:53.964Z,8.20
2023-02-22T06:42:21.121Z,7.35
2023-02-22T06:44:49.347Z,7.70
2023-02-22T06:47:16.846Z,7.95
2023-02-22T06:49:43.873Z,7.32
2023-02-22T06:52:11.070Z,7.57
2023-02-22T06:54:39.444Z,7.40
2023-02-22T06:57:06.681Z,7.85
2023-02-22T06:59:33.803Z,7.35
2023-02-22T07:02:00.838Z,7.60
2023-02-22T07:04:27.940Z,7.22
2023-02-22T07:06:55.086Z,7.32
2023-02-22T07:09:22.310Z,7.25
2023-02-22T07:11:49.390Z,7.45
2023-02-22T07:14:19.635Z,6.88
2023-02-22T07:16:46.720Z,6.97
2023-02-22T07:19:14.082Z,6.72
2023-02-22T07:21:41.196Z,7.18
2023-02-22T07:24:08.443Z,6.45
2023-02-22T07:26:40.817Z,6.47
2023-02-22T07:29:07.984Z,6.90
2023-02-22T07:31:36.885Z,7.07
2023-02-22T07:34:03.972Z,6.32
2023-02-22T07:36:31.092Z,6.40
2023-02-22T07:38:58.281Z,6.53
2023-02-22T07:41:26.304Z,7.32
2023-02-22T07:43:53.402Z,27.48
2023-02-22T07:46:20.705Z,27.33
2023-02-22T07:48:47.835Z,25.17
2023-02-22T07:51:20.629Z,24.95
2023-02-22T07:53:49.059Z,23.90
2023-02-22T07:58:45.363Z,53.40
2023-02-22T08:01:12.527Z,54.85
2023-02-22T08:03:39.677Z,53.92
2023-02-22T08:06:07.829Z,51.85
2023-02-22T08:08:34.946Z,48.83
2023-02-22T08:11:02.049Z,45.35
2023-02-22T08:13:29.157Z,42.92
2023-02-22T08:15:56.715Z,39.95
2023-02-22T08:18:25.041Z,38.22
2023-02-22T08:20:53.022Z,36.95
2023-02-22T08:23:22.677Z,34.15
2023-02-22T08:25:49.730Z,32.53
2023-02-22T08:28:19.909Z,32.33
2023-02-22T08:30:47.035Z,29.73
2023-02-22T08:33:16.930Z,29.65
2023-02-22T08:35:44.225Z,27.52
2023-02-22T08:38:21.699Z,26.73
2023-02-22T08:40:49.836Z,25.08
2023-02-22T08:43:18.292Z,27.45
2023-02-22T08:45:45.876Z,34.92
2023-02-22T08:48:14.235Z,37.00
2023-02-22T08:50:44.475Z,62.35
2023-02-22T08:53:13.640Z,44.08
2023-02-22T08:55:42.087Z,36.15
2023-02-22T08:58:09.977Z,31.15
2023-02-22T09:00:38.923Z,31.15
2023-02-22T09:03:08.621Z,30.77
2023-02-22T09:05:35.670Z,31.20
2023-02-22T09:08:03.103Z,29.20
2023-02-22T09:10:32.783Z,29.23
2023-02-22T09:15:28.988Z,28.75
2023-02-22T09:17:56.500Z,27.30
2023-02-22T09:20:24.606Z,27.13
2023-02-22T09:22:52.201Z,26.65
2023-02-22T09:25:22.905Z,27.10
2023-02-22T09:27:51.800Z,24.83
2023-02-22T09:30:32.475Z,24.40
2023-02-22T09:33:06.235Z,23.75
2023-02-22T09:35:36.387Z,23.52
2023-02-22T09:38:06.399Z,22.20
2023-02-22T09:40:41.009Z,22.42
2023-02-22T09:43:23.918Z,20.92
2023-02-22T09:46:21.954Z,21.50
2023-02-22T09:48:59.677Z,18.90
2023-02-22T09:51:49.495Z,25.52
2023-02-22T09:54:43.475Z,24.75
2023-02-22T09:57:16.313Z,21.83
2023-02-22T09:59:48.785Z,21.77
2023-02-22T10:02:27.096Z,20.83
2023-02-22T10:05:29.128Z,20.40
2023-02-22T10:08:05.866Z,20.35
2023-02-22T10:10:39.373Z,18.55
2023-02-22T10:13:28.094Z,18.25
2023-02-22T10:16:05.915Z,18.58
2023-02-22T10:18:55.245Z,16.92
2023-02-22T10:21:54.247Z,20.52
2023-02-22T10:24:42.794Z,21.20
2023-02-22T10:27:19.727Z,20.60
2023-02-22T10:29:51.135Z,19.20
2023-02-22T10:32:26.691Z,18.60
2023-02-22T10:34:55.496Z,17.90
2023-02-22T10:37:25.793Z,17.33
2023-02-22T10:40:00.344Z,21.98
2023-02-22T10:42:28.780Z,22.17
2023-02-22T10:44:55.846Z,21.95
2023-02-22T10:47:23.393Z,19.40
2023-02-22T10:49:53.817Z,19.05
2023-02-22T10:52:30.028Z,18.08
2023-02-22T10:55:14.085Z,16.90
2023-02-22T10:57:44.437Z,16.42
2023-02-22T11:00:20.824Z,15.25
2023-02-22T11:02:57.515Z,14.52
2023-02-22T11:05:36.823Z,14.50
2023-02-22T11:08:22.129Z,14.68
2023-02-22T11:10:51.503Z,13.90
2023-02-22T11:13:31.264Z,13.68
2023-02-22T11:18:36.456Z,13.07
2023-02-22T11:21:07.903Z,12.50
2023-02-22T11:23:37.821Z,12.70
2023-02-22T11:26:10.866Z,11.73
2023-02-22T11:28:49.512Z,11.95
2023-02-22T11:31:23.847Z,11.53
2023-02-22T11:36:40.977Z,14.63
2023-02-22T11:39:35.317Z,17.20
2023-02-22T11:42:23.205Z,16.42
2023-02-22T11:45:12.931Z,14.43
2023-02-22T11:53:08.353Z,13.52
2023-02-22T11:55:50.550Z,12.68
2023-02-22T11:58:38.985Z,12.02
2023-02-22T12:01:17.613Z,11.40
2023-02-22T12:03:59.682Z,11.57
2023-02-22T12:06:46.958Z,10.48
2023-02-22T12:09:37.177Z,10.63
2023-02-22T12:12:07.218Z,10.25
2023-02-22T12:14:42.405Z,11.18
2023-02-22T12:17:25.975Z,10.65
2023-02-22T12:20:01.668Z,10.30
2023-02-22T12:22:38.494Z,9.40
2023-02-22T12:25:22.251Z,9.60
2023-02-22T12:27:56.165Z,10.02
2023-02-22T12:30:36.501Z,8.93
2023-02-22T12:33:07.237Z,9.10
2023-02-22T12:35:40.744Z,9.30
2023-02-22T12:38:23.206Z,8.82
2023-02-22T12:41:14.027Z,8.82
2023-02-22T12:44:10.808Z,8.63
2023-02-22T12:46:40.753Z,8.02
2023-02-22T12:49:41.942Z,7.93
2023-02-22T12:52:21.932Z,11.82
2023-02-22T12:54:59.704Z,13.85
2023-02-22T12:57:48.189Z,15.95
2023-02-22T13:00:23.284Z,15.38
2023-02-22T13:03:05.151Z,14.30
2023-02-22T13:05:39.260Z,13.20
2023-02-22T13:08:26.225Z,12.45
2023-02-22T13:11:33.312Z,12.48
2023-02-22T13:14:06.052Z,10.13
2023-02-22T13:16:52.772Z,10.85
2023-02-22T13:19:54.395Z,10.45
2023-02-22T13:22:47.573Z,13.52
2023-02-22T13:25:25.739Z,16.63
2023-02-22T13:28:00.547Z,15.05
2023-02-22T13:30:45.732Z,13.77
2023-02-22T13:33:25.735Z,12.50
2023-02-22T13:36:07.079Z,11.90
2023-02-22T13:38:52.745Z,11.82
2023-02-22T13:41:48.565Z,11.02
2023-02-22T13:44:27.452Z,9.27
2023-02-22T13:47:18.748Z,9.63
2023-02-22T13:50:02.431Z,9.40
2023-02-22T13:52:32.227Z,9.60
2023-02-22T13:55:10.970Z,9.27
2023-02-22T13:57:51.565Z,8.32
2023-02-22T14:00:24.466Z,7.80
2023-02-22T14:03:03.787Z,8.02
2023-02-22T14:08:19.772Z,7.18
2023-02-22T14:10:50.821Z,7.82
2023-02-22T14:13:19.968Z,17.55
2023-02-22T14:16:05.135Z,17.38
2023-02-22T14:18:43.637Z,16.65
2023-02-22T14:21:12.550Z,15.77
2023-02-22T14:23:41.717Z,12.68
2023-02-22T14:26:30.306Z,12.27
2023-02-22T14:28:59.569Z,11.35
2023-02-22T14:31:43.469Z,10.15
2023-02-22T14:34:12.331Z,10.10
2023-02-22T14:37:09.588Z,9.20
2023-02-22T14:39:43.653Z,9.27
2023-02-22T14:42:18.564Z,8.95
2023-02-22T14:44:52.598Z,8.07
2023-02-22T14:47:28.244Z,8.40
2023-02-22T14:50:04.565Z,8.55
2023-02-22T14:52:35.836Z,7.90
2023-02-22T14:55:16.467Z,7.90
2023-02-22T14:58:10.579Z,7.90
2023-02-22T15:00:43.495Z,7.45
2023-02-22T15:03:56.010Z,6.97
2023-02-22T15:06:31.442Z,8.07
2023-02-22T15:09:14.398Z,7.05
2023-02-22T15:11:41.574Z,6.57
2023-02-22T15:14:25.671Z,6.90
2023-02-22T15:16:55.394Z,6.78
2023-02-22T15:19:26.451Z,7.03
2023-02-22T15:21:55.717Z,6.57
2023-02-22T15:24:31.005Z,6.85
2023-02-22T15:27:06.138Z,7.32
2023-02-22T15:29:37.357Z,6.82
2023-02-22T15:32:27.570Z,7.28
2023-02-22T15:34:56.519Z,6.53
2023-02-22T15:37:25.753Z,6.70
2023-02-22T15:39:59.526Z,6.90
2023-02-22T15:42:29.725Z,6.97
2023-02-22T15:44:57.928Z,6.63
2023-02-22T15:47:32.467Z,6.53
2023-02-22T15:50:33.368Z,6.80
2023-02-22T15:53:08.129Z,6.32
2023-02-22T15:55:44.147Z,6.47
2023-02-22T15:58:25.404Z,6.85
2023-02-22T16:01:12.391Z,6.85
2023-02-22T16:03:45.722Z,6.05
2023-02-22T16:06:38.344Z,6.68
2023-02-22T16:09:14.841Z,9.50
2023-02-22T16:11:44.304Z,22.23
2023-02-22T16:14:28.727Z,25.23
2023-02-22T16:17:31.559Z,24.25
2023-02-22T16:20:00.455Z,20.75
2023-02-22T16:22:33.926Z,18.05
2023-02-22T16:25:28.155Z,17.50
2023-02-22T16:28:03.115Z,13.98
2023-02-22T16:30:40.415Z,13.50
2023-02-22T16:33:13.567Z,12.18
2023-02-22T16:35:41.172Z,11.27
2023-02-22T16:38:17.022Z,10.82
2023-02-22T16:40:54.676Z,10.55
2023-02-22T16:43:33.340Z,10.80
2023-02-22T16:46:01.700Z,10.07
2023-02-22T16:48:32.757Z,9.50
2023-02-22T16:51:23.401Z,9.48
2023-02-22T16:53:52.896Z,9.40
2023-02-22T16:56:23.493Z,9.32
2023-02-22T16:58:50.964Z,9.13
2023-02-22T17:01:18.548Z,8.90
2023-02-22T17:03:45.830Z,9.20
2023-02-22T17:06:13.051Z,9.10
2023-02-22T17:08:41.323Z,23.33
2023-02-22T17:11:10.842Z,29.98
2023-02-22T17:13:38.186Z,29.70
2023-02-22T17:16:05.786Z,27.13
2023-02-22T17:18:34.231Z,25.17
2023-02-22T17:21:04.779Z,22.90
2023-02-22T17:23:31.987Z,22.15
2023-02-22T17:26:02.294Z,21.55
2023-02-22T17:28:29.630Z,19.90
2023-02-22T17:31:02.065Z,20.83
2023-02-22T17:33:32.973Z,20.13
2023-02-22T17:36:02.115Z,20.70
2023-02-22T17:38:30.445Z,20.00
2023-02-22T17:40:59.044Z,20.90
2023-02-22T17:43:28.019Z,19.70
2023-02-22T17:45:55.525Z,19.80
2023-02-22T17:48:24.146Z,20.50
2023-02-22T17:50:52.062Z,20.33
2023-02-22T17:53:22.710Z,19.88
2023-02-22T17:55:50.329Z,19.33
2023-02-22T17:58:18.158Z,19.73
2023-02-22T18:00:48.461Z,18.88
2023-02-22T18:03:25.721Z,18.38
2023-02-22T18:05:58.812Z,18.30
2023-02-22T18:08:31.105Z,17.90
2023-02-22T18:10:58.965Z,17.50
2023-02-22T18:13:27.476Z,17.30
2023-02-22T18:16:00.238Z,17.42
2023-02-22T18:18:28.102Z,17.10
2023-02-22T18:20:59.608Z,16.75
2023-02-22T18:23:28.559Z,16.77
2023-02-22T18:26:09.733Z,15.80
2023-02-22T18:28:37.674Z,16.77
2023-02-22T18:31:09.807Z,16.30
2023-02-22T18:33:37.097Z,16.40
2023-02-22T18:36:04.790Z,16.10
2023-02-22T18:38:32.255Z,15.73
2023-02-22T18:41:04.995Z,16.92
2023-02-22T18:43:34.266Z,30.75
2023-02-22T18:46:16.407Z,32.53
2023-02-22T18:48:44.727Z,32.58
2023-02-22T18:51:13.968Z,30.13
2023-02-22T18:53:46.750Z,28.42
2023-02-22T18:56:21.683Z,27.00
2023-02-22T18:58:56.973Z,26.05
2023-02-22T19:01:24.352Z,24.95
2023-02-22T19:03:52.068Z,23.63
2023-02-22T19:06:22.583Z,23.30
2023-02-22T19:08:51.008Z,22.92
2023-02-22T19:11:21.963Z,22.77
2023-02-22T19:13:52.034Z,21.77
2023-02-22T19:16:20.305Z,21.00
2023-02-22T19:18:49.184Z,20.77
2023-02-22T19:21:17.043Z,20.13
2023-02-22T19:23:48.268Z,18.42
2023-02-22T19:26:21.151Z,21.20
2023-02-22T19:28:48.870Z,39.72
2023-02-22T19:31:18.778Z,37.30
2023-02-22T19:33:47.417Z,35.65
2023-02-22T19:36:15.448Z,32.92
2023-02-22T19:38:42.831Z,30.55
2023-02-22T19:41:18.153Z,28.48
2023-02-22T19:43:46.902Z,27.73
2023-02-22T19:46:14.278Z,25.98
2023-02-22T19:48:41.326Z,24.13
2023-02-22T19:51:13.918Z,22.95
2023-02-22T19:53:41.898Z,21.30
2023-02-22T19:56:10.246Z,20.52
2023-02-22T19:58:38.771Z,19.67
2023-02-22T20:01:27.160Z,19.75
2023-02-22T20:03:59.788Z,19.65
2023-02-22T20:06:34.736Z,18.25
2023-02-22T20:09:02.725Z,17.45
2023-02-22T20:11:30.141Z,17.55
2023-02-22T20:13:57.270Z,16.58
2023-02-22T20:16:24.872Z,17.48
2023-02-22T20:18:52.282Z,17.23
2023-02-22T20:21:26.649Z,16.52
2023-02-22T20:23:57.165Z,15.85
2023-02-22T20:26:25.701Z,15.35
2023-02-22T20:28:53.282Z,14.60
2023-02-22T20:31:21.433Z,14.75
2023-02-22T20:33:52.660Z,14.20
2023-02-22T20:36:22.188Z,15.02
2023-02-22T20:38:53.912Z,13.60
2023-02-22T20:41:24.583Z,14.68
2023-02-22T20:43:52.991Z,14.05
2023-02-22T20:46:20.180Z,13.93
2023-02-22T20:48:47.543Z,13.75
2023-02-22T20:51:15.612Z,12.90
2023-02-22T20:53:45.029Z,13.65
2023-02-22T20:56:14.486Z,13.85
2023-02-22T20:58:42.204Z,21.55
2023-02-22T21:01:13.956Z,25.02
2023-02-22T21:03:44.196Z,23.33
2023-02-22T21:06:15.481Z,23.40
2023-02-22T21:08:44.336Z,22.02
2023-02-22T21:11:13.319Z,19.95
2023-02-22T21:13:41.040Z,19.73
2023-02-22T21:16:10.344Z,18.67
2023-02-22T21:18:37.635Z,17.95
2023-02-22T21:21:10.438Z,16.83
2023-02-22T21:23:41.159Z,16.60
2023-02-22T21:26:14.712Z,16.73
2023-02-22T21:28:51.938Z,15.55
2023-02-22T21:31:21.555Z,15.50
2023-02-22T21:33:53.943Z,15.60
2023-02-22T21:36:25.422Z,14.98
2023-02-22T21:38:55.658Z,15.27
2023-02-22T21:41:27.462Z,14.25
2023-02-22T21:43:56.338Z,14.85
2023-02-22T21:46:24.439Z,15.33
2023-02-22T21:48:51.682Z,14.88
2023-02-22T21:51:25.486Z,14.52
2023-02-22T21:53:55.694Z,14.52
2023-02-22T21:56:27.354Z,13.85
2023-02-22T21:58:59.659Z,13.98
2023-02-22T22:01:30.958Z,13.55
2023-02-22T22:04:00.180Z,14.10
2023-02-22T22:06:28.954Z,13.68
2023-02-22T22:08:56.818Z,16.03
2023-02-22T22:11:25.221Z,19.20
2023-02-22T22:13:57.646Z,19.95
2023-02-22T22:16:27.222Z,19.15
2023-02-22T22:18:55.169Z,21.02
2023-02-22T22:21:24.054Z,21.00
2023-02-22T22:23:54.522Z,21.98
2023-02-22T22:26:24.629Z,22.80
2023-02-22T22:28:57.527Z,23.88
2023-02-22T22:31:28.267Z,23.70
2023-02-22T22:33:56.425Z,23.77
2023-02-22T22:36:26.496Z,24.02
2023-02-22T22:38:57.509Z,24.08
2023-02-22T22:41:25.157Z,22.80
2023-02-22T22:43:54.124Z,22.90
2023-02-22T22:46:21.574Z,22.15
2023-02-22T22:48:48.787Z,21.73
2023-02-22T22:51:19.882Z,21.05
2023-02-22T22:53:48.554Z,21.50
2023-02-22T22:56:18.392Z,22.45
2023-02-22T22:58:58.828Z,20.83
2023-02-22T23:01:31.767Z,19.23
2023-02-22T23:04:04.450Z,20.27
2023-02-22T23:06:36.696Z,20.25
2023-02-22T23:09:24.750Z,19.42
2023-02-22T23:12:17.912Z,18.60
2023-02-22T23:14:45.518Z,19.45
2023-02-22T23:17:31.096Z,19.08
2023-02-22T23:19:58.466Z,19.45
2023-02-22T23:22:25.490Z,17.25
2023-02-22T23:24:52.549Z,17.52
2023-02-22T23:27:19.632Z,17.13
2023-02-22T23:29:47.100Z,16.50
2023-02-22T23:32:14.510Z,17.73
2023-02-22T23:34:41.892Z,16.67
2023-02-22T23:37:10.660Z,17.65
2023-02-22T23:39:38.104Z,17.17
2023-02-22T23:42:08.715Z,17.80
2023-02-22T23:44:36.043Z,16.33
2023-02-22T23:47:04.013Z,15.90
2023-02-22T23:49:38.041Z,15.98
2023-02-22T23:52:06.682Z,16.23
2023-02-22T23:54:36.732Z,15.15
2023-02-22T23:57:04.677Z,14.68
2023-02-22T23:59:32.912Z,15.13
